createdAt,value
2023-06-16T00:01:10.836Z,3.50
2023-06-16T00:03:39.103Z,4.03
2023-06-16T00:06:16.120Z,3.75
2023-06-16T00:08:52.895Z,3.30
2023-06-16T00:11:20.427Z,3.30
2023-06-16T00:13:49.375Z,3.05
2023-06-16T00:16:20.872Z,3.28
2023-06-16T00:18:50.792Z,3.15
2023-06-16T00:21:20.980Z,2.70
2023-06-16T00:23:48.664Z,2.97
2023-06-16T00:26:15.926Z,3.08
2023-06-16T00:28:44.933Z,2.78
2023-06-16T00:31:14.167Z,2.58
2023-06-16T00:33:41.630Z,2.20
2023-06-16T00:36:08.930Z,2.63
2023-06-16T00:38:36.405Z,1.77
2023-06-16T00:41:03.781Z,2.25
2023-06-16T00:43:31.496Z,2.08
2023-06-16T00:45:59.781Z,2.10
2023-06-16T00:48:27.697Z,1.88
2023-06-16T00:50:56.264Z,2.03
2023-06-16T00:53:23.702Z,1.83
2023-06-16T00:55:51.706Z,1.75
2023-06-16T00:58:22.158Z,1.90
2023-06-16T01:00:50.957Z,1.77
2023-06-16T01:03:18.568Z,1.90
2023-06-16T01:05:46.406Z,2.00
2023-06-16T01:08:19.617Z,1.98
2023-06-16T01:11:00.330Z,1.80
2023-06-16T01:13:37.250Z,2.05
2023-06-16T01:16:07.990Z,1.90
2023-06-16T01:18:36.114Z,1.77
2023-06-16T01:21:12.064Z,2.10
2023-06-16T01:24:03.727Z,1.98
2023-06-16T01:26:33.878Z,2.10
2023-06-16T01:29:03.870Z,1.90
2023-06-16T01:31:32.470Z,2.20
2023-06-16T01:34:04.333Z,1.83
2023-06-16T01:37:00.836Z,2.15
2023-06-16T01:39:29.756Z,2.40
2023-06-16T01:41:59.848Z,2.20
2023-06-16T01:44:29.146Z,2.10
2023-06-16T01:46:57.311Z,2.25
2023-06-16T01:49:25.082Z,1.98
2023-06-16T01:51:52.507Z,2.10
2023-06-16T01:54:19.859Z,2.50
2023-06-16T01:56:47.236Z,2.15
2023-06-16T01:59:14.621Z,2.40
2023-06-16T02:01:50.612Z,2.00
2023-06-16T02:04:24.595Z,2.38
2023-06-16T02:07:03.564Z,2.20
2023-06-16T02:09:33.039Z,2.50
2023-06-16T02:12:00.734Z,2.60
2023-06-16T02:14:28.571Z,2.08
2023-06-16T02:16:57.174Z,2.42
2023-06-16T02:19:24.975Z,2.55
2023-06-16T02:21:52.829Z,2.20
2023-06-16T02:24:20.172Z,2.50
2023-06-16T02:26:47.575Z,2.75
2023-06-16T02:29:17.470Z,2.42
2023-06-16T02:31:49.118Z,2.33
2023-06-16T02:34:17.511Z,2.75
2023-06-16T02:36:47.638Z,2.53
2023-06-16T02:39:14.935Z,2.85
2023-06-16T02:41:43.180Z,2.50
2023-06-16T02:44:11.130Z,2.38
2023-06-16T02:46:38.669Z,2.33
2023-06-16T02:49:07.204Z,2.63
2023-06-16T02:51:35.606Z,2.40
2023-06-16T02:54:03.549Z,2.85
2023-06-16T02:56:31.109Z,2.97
2023-06-16T02:58:58.875Z,2.60
2023-06-16T03:01:30.126Z,2.90
2023-06-16T03:04:20.456Z,2.83
2023-06-16T03:06:58.758Z,2.58
2023-06-16T03:09:47.290Z,2.78
2023-06-16T03:12:15.528Z,2.50
2023-06-16T03:14:53.338Z,2.38
2023-06-16T03:17:21.918Z,2.65
2023-06-16T03:19:55.839Z,2.63
2023-06-16T03:22:41.780Z,2.90
2023-06-16T03:25:09.562Z,2.72
2023-06-16T03:27:44.130Z,2.55
2023-06-16T03:30:14.873Z,2.95
2023-06-16T03:32:56.541Z,2.90
2023-06-16T03:35:23.883Z,2.90
2023-06-16T03:37:53.322Z,3.00
2023-06-16T03:40:21.982Z,2.92
2023-06-16T03:42:49.772Z,3.05
2023-06-16T03:45:18.400Z,3.03
2023-06-16T03:47:45.855Z,3.10
2023-06-16T03:50:14.092Z,3.08
2023-06-16T03:52:44.409Z,3.38
2023-06-16T03:55:12.340Z,3.35
2023-06-16T03:57:39.664Z,3.38
2023-06-16T04:00:11.277Z,3.30
2023-06-16T04:02:42.548Z,3.40
2023-06-16T04:05:15.664Z,2.58
2023-06-16T04:07:42.978Z,3.30
2023-06-16T04:10:10.570Z,2.72
2023-06-16T04:12:37.953Z,3.15
2023-06-16T04:15:07.098Z,3.13
2023-06-16T04:17:34.418Z,2.60
2023-06-16T04:20:01.855Z,2.63
2023-06-16T04:22:29.457Z,2.70
2023-06-16T04:24:57.374Z,2.92
2023-06-16T04:27:26.348Z,3.00
2023-06-16T04:29:55.673Z,2.90
2023-06-16T04:32:23.915Z,2.70
2023-06-16T04:34:53.424Z,2.90
2023-06-16T04:37:22.825Z,2.75
2023-06-16T04:39:50.154Z,2.67
2023-06-16T04:42:21.977Z,2.92
2023-06-16T04:44:49.440Z,2.80
2023-06-16T04:47:18.730Z,2.38
2023-06-16T04:49:51.034Z,2.67
2023-06-16T04:55:39.633Z,2.85
2023-06-16T04:58:07.667Z,2.58
2023-06-16T05:00:35.002Z,2.67
2023-06-16T05:03:02.560Z,3.05
2023-06-16T05:05:30.004Z,3.03
2023-06-16T05:07:57.224Z,3.38
2023-06-16T05:10:26.632Z,2.90
2023-06-16T05:12:54.013Z,3.08
2023-06-16T05:15:21.584Z,2.80
2023-06-16T05:17:49.218Z,3.30
2023-06-16T05:20:17.213Z,3.10
2023-06-16T05:22:46.121Z,3.58
2023-06-16T05:25:13.475Z,4.00
2023-06-16T05:27:40.784Z,3.33
2023-06-16T05:30:09.195Z,3.30
2023-06-16T05:32:36.545Z,3.20
2023-06-16T05:35:04.127Z,3.00
2023-06-16T05:37:34.081Z,2.80
2023-06-16T05:40:03.790Z,3.40
2023-06-16T05:42:34.190Z,3.40
2023-06-16T05:45:02.421Z,3.17
2023-06-16T05:47:31.017Z,2.83
2023-06-16T05:50:00.273Z,3.00
2023-06-16T05:52:27.839Z,3.58
2023-06-16T05:54:55.282Z,3.05
2023-06-16T05:57:32.625Z,3.10
2023-06-16T05:59:59.998Z,2.88
2023-06-16T06:02:27.816Z,2.95
2023-06-16T06:04:55.318Z,2.63
2023-06-16T06:07:22.724Z,2.60
2023-06-16T06:09:50.864Z,3.00
2023-06-16T06:12:19.038Z,2.85
2023-06-16T06:14:46.485Z,3.00
2023-06-16T06:17:13.856Z,2.70
2023-06-16T06:19:41.505Z,2.85
2023-06-16T06:22:09.821Z,2.60
2023-06-16T06:24:39.627Z,2.47
2023-06-16T06:27:11.752Z,2.70
2023-06-16T06:29:39.302Z,2.88
2023-06-16T06:32:08.999Z,2.88
2023-06-16T06:34:37.802Z,2.30
2023-06-16T06:37:05.463Z,2.42
2023-06-16T06:39:33.596Z,2.70
2023-06-16T06:42:00.857Z,3.00
2023-06-16T06:44:38.205Z,2.53
2023-06-16T06:47:09.101Z,2.50
2023-06-16T06:49:36.813Z,2.60
2023-06-16T06:52:06.231Z,2.60
2023-06-16T06:54:33.516Z,2.30
2023-06-16T06:57:00.856Z,2.38
2023-06-16T06:59:28.171Z,2.60
2023-06-16T07:01:55.725Z,2.40
2023-06-16T07:04:23.169Z,2.65
2023-06-16T07:06:50.509Z,2.63
2023-06-16T07:09:29.648Z,2.47
2023-06-16T07:11:58.571Z,2.83
2023-06-16T07:14:27.548Z,2.55
2023-06-16T07:16:54.993Z,2.30
2023-06-16T07:19:24.701Z,2.50
2023-06-16T07:21:51.946Z,3.13
2023-06-16T07:24:19.323Z,2.47
2023-06-16T07:26:46.885Z,3.08
2023-06-16T07:29:14.220Z,2.88
2023-06-16T07:31:41.765Z,2.90
2023-06-16T07:34:09.004Z,3.20
2023-06-16T07:36:38.494Z,2.85
2023-06-16T07:39:05.764Z,2.83
2023-06-16T07:41:33.377Z,2.67
2023-06-16T07:44:00.947Z,3.10
2023-06-16T07:46:28.311Z,3.15
2023-06-16T07:48:56.121Z,3.30
2023-06-16T07:51:23.514Z,3.10
2023-06-16T07:53:50.870Z,2.70
2023-06-16T07:56:19.252Z,3.10
2023-06-16T07:58:46.799Z,2.95
2023-06-16T08:01:14.340Z,2.65
2023-06-16T08:03:47.291Z,2.55
2023-06-16T08:06:15.352Z,2.90
2023-06-16T08:08:42.973Z,2.72
2023-06-16T08:11:10.226Z,3.05
2023-06-16T08:13:37.527Z,2.70
2023-06-16T08:16:07.057Z,2.65
2023-06-16T08:18:34.469Z,2.80
2023-06-16T08:21:02.203Z,2.72
2023-06-16T08:23:29.475Z,2.72
2023-06-16T08:25:56.803Z,2.40
2023-06-16T08:28:24.066Z,2.90
2023-06-16T08:30:51.881Z,2.70
2023-06-16T08:33:19.337Z,2.67
2023-06-16T08:35:46.736Z,2.70
2023-06-16T08:38:26.317Z,2.80
2023-06-16T08:40:59.942Z,2.47
2023-06-16T08:43:39.654Z,2.67
2023-06-16T08:46:10.437Z,2.90
2023-06-16T08:48:40.926Z,3.25
2023-06-16T08:51:11.658Z,2.90
2023-06-16T08:53:41.840Z,3.30
2023-06-16T08:56:13.513Z,2.90
2023-06-16T08:58:52.781Z,3.17
2023-06-16T09:01:34.556Z,3.00
2023-06-16T09:04:03.102Z,3.10
2023-06-16T09:06:40.351Z,2.95
2023-06-16T09:09:11.020Z,2.70
2023-06-16T09:11:38.316Z,3.10
2023-06-16T09:14:16.041Z,3.10
2023-06-16T09:16:56.691Z,2.85
2023-06-16T09:19:24.021Z,2.75
2023-06-16T09:22:00.826Z,2.85
2023-06-16T09:24:29.643Z,2.92
2023-06-16T09:27:00.618Z,3.00
2023-06-16T09:29:32.365Z,2.65
2023-06-16T09:32:11.063Z,2.80
2023-06-16T09:34:38.672Z,2.88
2023-06-16T09:37:07.491Z,3.03
2023-06-16T09:39:35.462Z,2.85
2023-06-16T09:42:03.482Z,3.10
2023-06-16T09:44:32.102Z,3.00
2023-06-16T09:47:01.591Z,3.20
2023-06-16T09:49:28.988Z,3.10
2023-06-16T09:51:58.443Z,3.40
2023-06-16T09:54:27.434Z,3.13
2023-06-16T09:56:56.826Z,3.38
2023-06-16T09:59:27.020Z,3.38
2023-06-16T10:01:56.654Z,3.58
2023-06-16T10:04:24.928Z,3.13
2023-06-16T10:07:00.593Z,3.75
2023-06-16T10:09:54.925Z,3.65
2023-06-16T10:12:32.216Z,3.63
2023-06-16T10:15:01.552Z,3.25
2023-06-16T10:17:31.489Z,3.67
2023-06-16T10:19:59.486Z,3.33
2023-06-16T10:22:26.847Z,3.45
2023-06-16T10:24:56.880Z,3.65
2023-06-16T10:27:24.876Z,3.70
2023-06-16T10:29:52.953Z,3.70
2023-06-16T10:32:20.534Z,3.30
2023-06-16T10:34:50.521Z,3.28
2023-06-16T10:37:20.030Z,3.60
2023-06-16T10:39:47.550Z,3.42
2023-06-16T10:42:16.363Z,3.63
2023-06-16T10:44:44.538Z,3.38
2023-06-16T10:47:12.089Z,3.30
2023-06-16T10:50:03.674Z,3.75
2023-06-16T10:52:52.258Z,3.70
2023-06-16T10:55:43.085Z,4.25
2023-06-16T10:58:25.447Z,3.55
2023-06-16T11:00:59.078Z,3.55
2023-06-16T11:03:35.363Z,3.92
2023-06-16T11:06:04.230Z,3.20
2023-06-16T11:08:31.942Z,3.40
2023-06-16T11:11:06.739Z,3.35
2023-06-16T11:13:36.491Z,3.47
2023-06-16T11:16:04.423Z,3.30
2023-06-16T11:18:34.823Z,3.47
2023-06-16T11:21:12.413Z,3.20
2023-06-16T11:23:45.282Z,3.40
2023-06-16T11:26:19.513Z,3.58
2023-06-16T11:28:48.852Z,3.33
2023-06-16T11:31:16.774Z,3.58
2023-06-16T11:33:44.253Z,4.00
2023-06-16T11:36:18.398Z,3.80
2023-06-16T11:38:47.203Z,3.63
2023-06-16T11:41:18.341Z,3.60
2023-06-16T11:43:46.507Z,3.35
2023-06-16T11:46:14.717Z,3.33
2023-06-16T11:48:42.433Z,3.22
2023-06-16T11:51:09.795Z,3.78
2023-06-16T11:53:37.748Z,3.42
2023-06-16T11:56:09.894Z,4.03
2023-06-16T11:58:37.204Z,3.75
2023-06-16T12:01:05.999Z,3.72
2023-06-16T12:03:43.459Z,3.72
2023-06-16T12:06:20.730Z,3.85
2023-06-16T12:08:49.803Z,3.67
2023-06-16T12:11:29.221Z,3.40
2023-06-16T12:13:58.212Z,3.42
2023-06-16T12:16:28.152Z,3.30
2023-06-16T12:18:58.007Z,3.40
2023-06-16T12:21:28.350Z,3.63
2023-06-16T12:23:58.404Z,3.75
2023-06-16T12:26:41.923Z,4.07
2023-06-16T12:29:14.725Z,4.10
2023-06-16T12:31:52.218Z,3.70
2023-06-16T12:34:39.294Z,3.60
2023-06-16T12:37:11.878Z,4.00
2023-06-16T12:39:42.907Z,3.80
2023-06-16T12:42:11.790Z,4.00
2023-06-16T12:44:42.242Z,4.00
2023-06-16T12:47:10.481Z,3.60
2023-06-16T12:49:38.541Z,3.42
2023-06-16T12:52:07.263Z,3.72
2023-06-16T12:54:35.449Z,3.70
2023-06-16T12:57:03.372Z,3.70
2023-06-16T12:59:31.085Z,3.95
2023-06-16T13:01:58.817Z,3.42
2023-06-16T13:04:26.570Z,3.60
2023-06-16T13:06:54.018Z,3.90
2023-06-16T13:09:22.227Z,4.15
2023-06-16T13:11:50.638Z,3.83
2023-06-16T13:14:19.908Z,3.75
2023-06-16T13:16:48.668Z,4.30
2023-06-16T13:19:16.462Z,3.63
2023-06-16T13:21:44.160Z,3.95
2023-06-16T13:24:11.976Z,4.53
2023-06-16T13:26:40.780Z,4.43
2023-06-16T13:29:08.988Z,4.82
2023-06-16T13:31:36.358Z,4.07
2023-06-16T13:34:04.244Z,4.35
2023-06-16T13:36:31.666Z,4.10
2023-06-16T13:38:59.113Z,4.03
2023-06-16T13:41:26.589Z,4.03
2023-06-16T13:43:54.452Z,4.57
2023-06-16T13:46:22.391Z,4.32
2023-06-16T13:48:49.911Z,3.90
2023-06-16T13:51:17.327Z,4.53
2023-06-16T13:53:44.818Z,4.03
2023-06-16T13:56:12.642Z,4.57
2023-06-16T13:58:40.003Z,4.28
2023-06-16T14:01:07.301Z,4.40
2023-06-16T14:03:34.575Z,4.22
2023-06-16T14:06:02.674Z,4.47
2023-06-16T14:08:30.694Z,4.47
2023-06-16T14:10:58.264Z,4.20
2023-06-16T14:13:25.924Z,4.30
2023-06-16T14:15:53.211Z,4.50
2023-06-16T14:18:20.681Z,4.63
2023-06-16T14:20:48.181Z,4.05
2023-06-16T14:23:18.214Z,4.20
2023-06-16T14:25:46.547Z,4.00
2023-06-16T14:28:15.286Z,4.38
2023-06-16T14:30:42.741Z,4.75
2023-06-16T14:33:11.905Z,4.43
2023-06-16T14:35:39.954Z,4.00
2023-06-16T14:38:07.312Z,4.43
2023-06-16T14:40:36.339Z,4.45
2023-06-16T14:43:03.659Z,3.78
2023-06-16T14:45:31.291Z,4.82
2023-06-16T14:47:58.671Z,4.70
2023-06-16T14:50:26.056Z,5.38
2023-06-16T14:52:53.298Z,5.53
2023-06-16T14:55:20.842Z,5.75
2023-06-16T14:57:48.115Z,5.10
2023-06-16T15:00:15.810Z,5.70
2023-06-16T15:02:43.186Z,5.35
2023-06-16T15:05:10.830Z,5.03
2023-06-16T15:07:38.164Z,5.40
2023-06-16T15:10:06.357Z,5.60
2023-06-16T15:12:33.675Z,5.55
2023-06-16T15:15:00.959Z,5.53
2023-06-16T15:17:30.795Z,6.63
2023-06-16T15:19:58.155Z,5.50
2023-06-16T15:22:26.832Z,6.32
2023-06-16T15:24:54.587Z,5.40
2023-06-16T15:27:21.993Z,5.10
2023-06-16T15:29:52.221Z,5.60
2023-06-16T15:32:19.569Z,5.18
2023-06-16T15:34:46.891Z,4.72
2023-06-16T15:37:14.365Z,5.53
2023-06-16T15:39:41.742Z,5.00
2023-06-16T15:42:09.077Z,5.15
2023-06-16T15:44:36.705Z,4.70
2023-06-16T15:47:04.439Z,5.80
2023-06-16T15:49:31.937Z,5.97
2023-06-16T15:51:59.451Z,5.43
2023-06-16T15:54:27.038Z,5.43
2023-06-16T15:56:54.329Z,5.07
2023-06-16T15:59:21.609Z,6.07
2023-06-16T16:01:49.172Z,5.00
2023-06-16T16:04:16.687Z,5.50
2023-06-16T16:06:44.196Z,5.18
2023-06-16T16:09:11.549Z,6.13
2023-06-16T16:11:40.922Z,4.88
2023-06-16T16:14:08.976Z,5.50
2023-06-16T16:16:37.588Z,6.25
2023-06-16T16:19:04.912Z,5.13
2023-06-16T16:21:32.780Z,6.28
2023-06-16T16:24:00.096Z,6.15
2023-06-16T16:26:27.446Z,5.28
2023-06-16T16:28:54.787Z,5.45
2023-06-16T16:31:22.321Z,5.53
2023-06-16T16:33:49.778Z,6.18
2023-06-16T16:36:19.138Z,6.20
2023-06-16T16:38:46.387Z,6.07
2023-06-16T16:41:13.787Z,6.47
2023-06-16T16:43:41.059Z,6.13
2023-06-16T16:46:08.403Z,6.07
2023-06-16T16:48:35.706Z,5.82
2023-06-16T16:51:02.991Z,5.68
2023-06-16T16:53:30.247Z,5.60
2023-06-16T16:55:57.511Z,5.88
2023-06-16T16:58:24.787Z,5.63
2023-06-16T17:00:52.311Z,6.22
2023-06-16T17:03:19.562Z,5.53
2023-06-16T17:05:46.912Z,4.60
2023-06-16T17:08:14.216Z,5.05
2023-06-16T17:10:41.555Z,5.40
2023-06-16T17:13:10.342Z,5.82
2023-06-16T17:15:37.793Z,5.13
2023-06-16T17:18:06.298Z,5.78
2023-06-16T17:20:33.633Z,5.95
2023-06-16T17:23:00.975Z,6.50
2023-06-16T17:25:28.294Z,5.72
2023-06-16T17:27:59.212Z,5.50
2023-06-16T17:30:28.226Z,5.20
2023-06-16T17:32:59.255Z,5.30
2023-06-16T17:35:28.775Z,5.90
2023-06-16T17:37:56.905Z,5.57
2023-06-16T17:40:28.237Z,5.72
2023-06-16T17:42:55.479Z,5.60
2023-06-16T17:45:23.038Z,5.93
2023-06-16T17:47:50.679Z,5.28
2023-06-16T17:50:18.206Z,5.22
2023-06-16T17:52:45.815Z,5.43
2023-06-16T17:55:13.206Z,5.38
2023-06-16T17:57:42.124Z,4.57
2023-06-16T18:00:16.913Z,5.68
2023-06-16T18:02:44.799Z,5.82
2023-06-16T18:05:12.671Z,6.07
2023-06-16T18:07:40.595Z,5.25
2023-06-16T18:10:09.457Z,6.18
2023-06-16T18:12:36.763Z,6.05
2023-06-16T18:15:04.342Z,6.05
2023-06-16T18:17:32.191Z,6.13
2023-06-16T18:19:59.524Z,5.45
2023-06-16T18:22:27.013Z,6.28
2023-06-16T18:24:54.353Z,6.10
2023-06-16T18:27:21.627Z,6.85
2023-06-16T18:29:49.018Z,6.28
2023-06-16T18:32:16.494Z,6.60
2023-06-16T18:34:43.838Z,6.20
2023-06-16T18:37:13.198Z,5.38
2023-06-16T18:39:40.561Z,5.60
2023-06-16T18:42:09.509Z,5.88
2023-06-16T18:44:36.901Z,5.70
2023-06-16T18:47:06.186Z,5.63
2023-06-16T18:49:33.424Z,5.63
2023-06-16T18:52:01.731Z,5.40
2023-06-16T18:54:29.056Z,5.57
2023-06-16T18:56:57.097Z,5.90
2023-06-16T18:59:24.350Z,5.55
2023-06-16T19:01:51.723Z,5.93
2023-06-16T19:04:19.391Z,5.93
2023-06-16T19:06:46.615Z,6.40
2023-06-16T19:09:13.866Z,6.38
2023-06-16T19:11:41.421Z,5.95
2023-06-16T19:14:08.701Z,7.05
2023-06-16T19:16:36.192Z,6.40
2023-06-16T19:19:03.631Z,7.00
2023-06-16T19:21:31.044Z,7.70
2023-06-16T19:23:58.375Z,5.85
2023-06-16T19:26:26.018Z,5.93
2023-06-16T19:28:54.091Z,5.93
2023-06-16T19:31:23.696Z,5.93
2023-06-16T19:33:51.418Z,6.88
2023-06-16T19:36:19.001Z,6.85
2023-06-16T19:38:46.260Z,6.07
2023-06-16T19:41:13.889Z,6.55
2023-06-16T19:43:41.691Z,6.43
2023-06-16T19:46:09.054Z,6.10
2023-06-16T19:48:37.145Z,5.03
2023-06-16T19:51:04.546Z,6.20
2023-06-16T19:53:31.854Z,5.35
2023-06-16T19:55:59.150Z,5.10
2023-06-16T19:58:26.577Z,4.88
2023-06-16T20:00:54.006Z,4.82
2023-06-16T20:03:22.421Z,4.60
2023-06-16T20:05:50.678Z,5.38
2023-06-16T20:08:18.044Z,4.28
2023-06-16T20:10:46.247Z,4.50
2023-06-16T20:13:13.670Z,4.80
2023-06-16T20:15:41.083Z,4.90
2023-06-16T20:18:08.554Z,4.88
2023-06-16T20:20:35.923Z,4.90
2023-06-16T20:23:04.241Z,5.28
2023-06-16T20:25:31.481Z,4.63
2023-06-16T20:27:58.814Z,4.57
2023-06-16T20:30:26.514Z,5.45
2023-06-16T20:32:53.975Z,5.10
2023-06-16T20:35:22.601Z,4.97
2023-06-16T20:37:52.838Z,5.18
2023-06-16T20:40:20.367Z,5.00
2023-06-16T20:42:48.597Z,4.82
2023-06-16T20:45:16.768Z,4.93
2023-06-16T20:47:50.478Z,4.90
2023-06-16T20:50:22.886Z,5.10
2023-06-16T20:52:51.726Z,4.57
2023-06-16T20:55:19.728Z,4.80
2023-06-16T20:57:47.950Z,5.10
2023-06-16T21:00:15.953Z,4.63
2023-06-16T21:02:43.341Z,4.60
2023-06-16T21:05:12.005Z,4.75
2023-06-16T21:07:45.713Z,4.85
2023-06-16T21:10:13.731Z,4.88
2023-06-16T21:12:43.090Z,4.53
2023-06-16T21:15:12.152Z,4.97
2023-06-16T21:17:39.980Z,4.78
2023-06-16T21:20:10.817Z,4.90
2023-06-16T21:22:39.885Z,4.50
2023-06-16T21:25:08.070Z,4.68
2023-06-16T21:27:35.487Z,4.38
2023-06-16T21:30:03.266Z,4.97
2023-06-16T21:32:30.609Z,4.55
2023-06-16T21:34:58.557Z,4.95
2023-06-16T21:37:26.343Z,4.90
2023-06-16T21:40:09.185Z,5.20
2023-06-16T21:42:42.079Z,4.70
2023-06-16T21:45:11.484Z,5.30
2023-06-16T21:47:39.514Z,5.07
2023-06-16T21:50:07.747Z,4.90
2023-06-16T21:52:35.605Z,5.20
2023-06-16T21:55:04.346Z,5.15
2023-06-16T21:57:32.089Z,4.80
2023-06-16T21:59:59.952Z,5.15
2023-06-16T22:02:27.895Z,5.07
2023-06-16T22:04:55.296Z,5.10
2023-06-16T22:07:23.347Z,5.05
2023-06-16T22:09:52.154Z,5.20
2023-06-16T22:12:20.152Z,4.80
2023-06-16T22:14:47.975Z,5.45
2023-06-16T22:17:15.941Z,4.97
2023-06-16T22:19:44.153Z,4.95
2023-06-16T22:22:12.390Z,5.30
2023-06-16T22:24:41.790Z,5.40
2023-06-16T22:29:40.832Z,5.13
2023-06-16T22:32:09.011Z,5.03
2023-06-16T22:34:47.074Z,5.43
2023-06-16T22:37:16.792Z,5.40
2023-06-16T22:39:55.497Z,5.35
2023-06-16T22:42:24.351Z,5.57
2023-06-16T22:44:55.750Z,5.45
2023-06-16T22:47:23.273Z,5.40
2023-06-16T22:49:51.791Z,5.95
2023-06-16T22:52:19.243Z,5.93
2023-06-16T22:54:46.580Z,5.47
2023-06-16T22:57:13.897Z,5.78
2023-06-16T22:59:41.166Z,5.45
2023-06-16T23:02:08.448Z,5.78
2023-06-16T23:04:35.874Z,5.88
2023-06-16T23:07:03.374Z,5.75
2023-06-16T23:09:30.746Z,5.78
2023-06-16T23:11:58.065Z,6.50
2023-06-16T23:14:25.907Z,6.90
2023-06-16T23:16:53.354Z,6.60
2023-06-16T23:19:20.592Z,7.57
2023-06-16T23:21:48.474Z,7.70
2023-06-16T23:24:18.349Z,7.13
2023-06-16T23:26:46.875Z,7.88
2023-06-16T23:29:19.218Z,8.10
2023-06-16T23:31:46.818Z,8.50
2023-06-16T23:34:15.345Z,8.80
2023-06-16T23:36:42.607Z,8.32
2023-06-16T23:39:09.996Z,9.00
2023-06-16T23:41:38.268Z,8.95
2023-06-16T23:44:05.624Z,9.85
2023-06-16T23:46:33.055Z,8.60
2023-06-16T23:49:00.463Z,8.52
2023-06-16T23:51:27.741Z,8.77
2023-06-16T23:53:55.020Z,9.50
2023-06-16T23:56:22.373Z,9.45
2023-06-16T23:58:49.714Z,8.77
